Carver, MN (55315)

7:38 AM CDT on July 07, 2015 (GMT -0500)
Carver Bluffs, Carver Minnesota | | Change Station
CLOSE
Current Station
Personal Weather Station
Location: Carver, MN
Elevation: 837 ft
Nearby Weather Stations

Elev 837 ft 44.75 °N, 93.65 °W | Updated 10 seconds ago

Clear
Clear
56.5 °F
Feels Like 56.5 °F
N
3.0
Wind Variable Wind from NE

Today
High -- | Low -- °F
--% Chance of Precip.
Yesterday
High -- | Low -- °F
Precip. -- in
5:36 AM 9:02 PM
Waning Gibbous, 65% visible
Pressure 30.13 in
Visibility 10.0 miles
Clouds Clear
Dew Point 48 °F
Humidity 72%
Rainfall -999.00 in
Snow Depth Not available.
UV 1 out of 12
Pollen 3.60 out of 12
Air Quality Not available.
Flu Activity Not available.
METAR KFCM 071153Z 35008KT 10SM CLR 13/07 A3013 RMK AO2 SLP201 70010 T01280072 10144 20117 53016

More Conditions Fewer Conditions

Pressure 30.13 in
Visibility 10.0 miles
Clouds Clear
Dew Point 48 °F
Humidity 72%
Rainfall -999.00 in
Snow Depth Not available.
UV 1 out of 12
Pollen 3.60 out of 12
Air Quality Not available.
Flu Activity Not available.
METAR KFCM 071153Z 35008KT 10SM CLR 13/07 A3013 RMK AO2 SLP201 70010 T01280072 10144 20117 53016

More Conditions Fewer Conditions

10-Day Weather Forecast

×

Almanac

Astronomy

Jul. 07, 2015 Rise Set
Actual Time
Civil Twilight
Nautical Twilight
Astronomical Twilight
Moon
Length of Visible Light
Length of Day
Tomorrow will be .
, % of the Moon is Illuminated

Today's Extremes

State Highs State Lows

Community

WunderPhotos

Upload Photos

1,835,788 photos uploaded!

WunderBlogs® & News

Nearby

Air Quality

  Air Quality AQ Index Pollutant
Not available.

Snow Depth

Station Depth Elevation

Earthquake Activity

City Distance Mag. Time & Date
Minimum magnitude displayed is 2.5.

Coastal Water Temperatures

Place Temperature

Stations

Nearby Weather Stations

Station Location Temp. Windchill Dew Point Humidity Wind Precip. Elev Updated Type